sensor_id;sensor_type;location;lat;lon;timestamp;pressure;altitude;pressure_sealevel;temperature;humidity
10202;BME280;5143;42.584;23.164;2022-07-23T05:44:51;93101.34;;;38.19;24.13
10202;BME280;5143;42.584;23.164;2022-07-23T05:47:18;93099.47;;;38.08;23.97
10202;BME280;5143;42.584;23.164;2022-07-23T05:49:45;93096.53;;;38.06;23.24
10202;BME280;5143;42.584;23.164;2022-07-23T05:52:12;93098.66;;;38.41;23.09
10202;BME280;5143;42.584;23.164;2022-07-23T05:54:38;93097.50;;;38.30;23.31
10202;BME280;5143;42.584;23.164;2022-07-23T05:57:05;93103.59;;;38.58;23.52
10202;BME280;5143;42.584;23.164;2022-07-23T05:59:32;93105.28;;;39.02;21.67
10202;BME280;5143;42.584;23.164;2022-07-23T06:02:00;93103.69;;;39.17;21.21
10202;BME280;5143;42.584;23.164;2022-07-23T06:04:27;93096.47;;;39.55;21.24
10202;BME280;5143;42.584;23.164;2022-07-23T06:06:54;93105.44;;;40.08;20.82
10202;BME280;5143;42.584;23.164;2022-07-23T06:09:21;93093.56;;;40.40;20.58
10202;BME280;5143;42.584;23.164;2022-07-23T06:11:47;93092.28;;;40.21;20.07
10202;BME280;5143;42.584;23.164;2022-07-23T06:14:14;93100.94;;;40.47;19.45
10202;BME280;5143;42.584;23.164;2022-07-23T06:16:41;93093.22;;;40.06;19.77
10202;BME280;5143;42.584;23.164;2022-07-23T06:19:09;93100.31;;;40.05;20.35
10202;BME280;5143;42.584;23.164;2022-07-23T06:21:36;93095.31;;;40.05;21.11
10202;BME280;5143;42.584;23.164;2022-07-23T06:24:03;93093.72;;;40.00;22.34
10202;BME280;5143;42.584;23.164;2022-07-23T06:26:30;93092.06;;;39.93;21.43
10202;BME280;5143;42.584;23.164;2022-07-23T06:28:56;93083.22;;;39.85;21.09
10202;BME280;5143;42.584;23.164;2022-07-23T06:31:23;93079.97;;;39.73;22.35
10202;BME280;5143;42.584;23.164;2022-07-23T06:33:50;93089.22;;;39.72;21.55
10202;BME280;5143;42.584;23.164;2022-07-23T06:36:18;93097.88;;;40.17;19.99
10202;BME280;5143;42.584;23.164;2022-07-23T06:38:45;93096.31;;;39.51;22.15
10202;BME280;5143;42.584;23.164;2022-07-23T06:41:12;93090.16;;;39.59;22.50
10202;BME280;5143;42.584;23.164;2022-07-23T06:43:39;93088.81;;;39.81;22.17
10202;BME280;5143;42.584;23.164;2022-07-23T06:46:05;93088.00;;;39.37;21.84
10202;BME280;5143;42.584;23.164;2022-07-23T06:48:32;93091.84;;;40.52;21.62
10202;BME280;5143;42.584;23.164;2022-07-23T06:51:01;93091.66;;;40.46;20.97
10202;BME280;5143;42.584;23.164;2022-07-23T06:53:29;93071.09;;;40.30;21.08
10202;BME280;5143;42.584;23.164;2022-07-23T06:55:56;93078.34;;;40.33;21.93
10202;BME280;5143;42.584;23.164;2022-07-23T06:58:22;93078.22;;;40.51;21.02
10202;BME280;5143;42.584;23.164;2022-07-23T07:00:49;93078.28;;;40.77;21.51
10202;BME280;5143;42.584;23.164;2022-07-23T07:03:17;93074.44;;;41.17;21.31
10202;BME280;5143;42.584;23.164;2022-07-23T07:05:44;93083.47;;;41.32;21.61
10202;BME280;5143;42.584;23.164;2022-07-23T07:08:11;93093.81;;;41.98;21.64
10202;BME280;5143;42.584;23.164;2022-07-23T07:10:39;93083.66;;;41.67;21.76
10202;BME280;5143;42.584;23.164;2022-07-23T07:13:06;93085.97;;;42.01;21.69
10202;BME280;5143;42.584;23.164;2022-07-23T07:15:33;93085.38;;;42.34;20.83
10202;BME280;5143;42.584;23.164;2022-07-23T07:18:00;93084.56;;;42.02;20.92
10202;BME280;5143;42.584;23.164;2022-07-23T07:20:27;93089.75;;;42.37;20.91
10202;BME280;5143;42.584;23.164;2022-07-23T07:22:53;93077.00;;;42.14;20.84
10202;BME280;5143;42.584;23.164;2022-07-23T07:25:20;93077.25;;;41.95;20.44
10202;BME280;5143;42.584;23.164;2022-07-23T07:27:48;93079.22;;;40.85;21.92
10202;BME280;5143;42.584;23.164;2022-07-23T07:30:15;93069.72;;;41.02;21.70
10202;BME280;5143;42.584;23.164;2022-07-23T07:32:42;93081.81;;;42.06;20.50
10202;BME280;5143;42.584;23.164;2022-07-23T07:35:09;93068.91;;;42.37;20.04
10202;BME280;5143;42.584;23.164;2022-07-23T07:37:36;93076.13;;;42.38;20.27
10202;BME280;5143;42.584;23.164;2022-07-23T07:40:03;93067.13;;;41.12;21.38
10202;BME280;5143;42.584;23.164;2022-07-23T07:42:30;93055.94;;;39.00;23.40
10202;BME280;5143;42.584;23.164;2022-07-23T07:44:59;93062.25;;;40.22;22.95
10202;BME280;5143;42.584;23.164;2022-07-23T07:47:26;93057.16;;;40.90;21.97
10202;BME280;5143;42.584;23.164;2022-07-23T07:49:52;93063.63;;;40.67;21.90
10202;BME280;5143;42.584;23.164;2022-07-23T07:52:19;93057.06;;;40.62;22.38
10202;BME280;5143;42.584;23.164;2022-07-23T07:54:46;93062.63;;;41.57;22.32
10202;BME280;5143;42.584;23.164;2022-07-23T07:57:12;93060.63;;;41.36;22.18
10202;BME280;5143;42.584;23.164;2022-07-23T07:59:39;93052.03;;;40.86;22.38
10202;BME280;5143;42.584;23.164;2022-07-23T08:02:07;93056.91;;;41.31;21.42
10202;BME280;5143;42.584;23.164;2022-07-23T08:04:34;93053.53;;;41.13;21.02
10202;BME280;5143;42.584;23.164;2022-07-23T08:07:01;93056.50;;;41.43;22.14
10202;BME280;5143;42.584;23.164;2022-07-23T08:09:28;93052.09;;;41.12;20.79
10202;BME280;5143;42.584;23.164;2022-07-23T08:11:54;93052.97;;;41.18;21.28
10202;BME280;5143;42.584;23.164;2022-07-23T08:14:21;93055.94;;;41.48;21.21
10202;BME280;5143;42.584;23.164;2022-07-23T08:16:48;93056.47;;;41.41;21.21
10202;BME280;5143;42.584;23.164;2022-07-23T08:19:16;93050.91;;;40.72;20.93
10202;BME280;5143;42.584;23.164;2022-07-23T08:21:43;93052.00;;;39.50;21.67
10202;BME280;5143;42.584;23.164;2022-07-23T08:24:09;93049.22;;;40.17;21.83
10202;BME280;5143;42.584;23.164;2022-07-23T08:26:36;93049.00;;;40.33;21.91
10202;BME280;5143;42.584;23.164;2022-07-23T08:29:03;93046.91;;;39.27;23.46
10202;BME280;5143;42.584;23.164;2022-07-23T08:31:31;93035.28;;;38.07;24.14
10202;BME280;5143;42.584;23.164;2022-07-23T08:33:58;93037.97;;;37.67;23.72
10202;BME280;5143;42.584;23.164;2022-07-23T08:36:26;93043.41;;;37.28;24.87
10202;BME280;5143;42.584;23.164;2022-07-23T08:38:53;93032.91;;;36.50;25.10
10202;BME280;5143;42.584;23.164;2022-07-23T08:41:20;93027.84;;;35.88;26.66
10202;BME280;5143;42.584;23.164;2022-07-23T08:43:47;93033.50;;;35.16;26.94
10202;BME280;5143;42.584;23.164;2022-07-23T08:46:14;93021.06;;;34.80;26.25
10202;BME280;5143;42.584;23.164;2022-07-23T08:48:41;93018.53;;;34.73;25.28
10202;BME280;5143;42.584;23.164;2022-07-23T08:51:08;93021.97;;;34.30;26.84
10202;BME280;5143;42.584;23.164;2022-07-23T08:53:37;93017.97;;;33.97;25.32
10202;BME280;5143;42.584;23.164;2022-07-23T08:56:05;93018.03;;;33.85;26.26
10202;BME280;5143;42.584;23.164;2022-07-23T08:58:32;93018.06;;;33.99;26.33
10202;BME280;5143;42.584;23.164;2022-07-23T09:00:59;93009.97;;;34.18;24.83
10202;BME280;5143;42.584;23.164;2022-07-23T09:03:29;93018.72;;;34.36;25.19
10202;BME280;5143;42.584;23.164;2022-07-23T09:05:57;93010.91;;;34.23;26.31
10202;BME280;5143;42.584;23.164;2022-07-23T09:08:24;93013.88;;;34.25;26.43
10202;BME280;5143;42.584;23.164;2022-07-23T09:10:55;93009.66;;;33.87;25.29
10202;BME280;5143;42.584;23.164;2022-07-23T09:13:28;93006.91;;;33.50;24.34
10202;BME280;5143;42.584;23.164;2022-07-23T09:15:57;93011.00;;;33.72;26.49
10202;BME280;5143;42.584;23.164;2022-07-23T09:18:29;93011.59;;;33.71;24.92
10202;BME280;5143;42.584;23.164;2022-07-23T09:21:07;93016.97;;;33.53;22.93
10202;BME280;5143;42.584;23.164;2022-07-23T09:23:38;93014.25;;;33.55;22.88
10202;BME280;5143;42.584;23.164;2022-07-23T09:26:19;93017.25;;;33.96;23.09
10202;BME280;5143;42.584;23.164;2022-07-23T09:28:50;93013.50;;;34.05;23.10
10202;BME280;5143;42.584;23.164;2022-07-23T09:31:18;93007.44;;;34.11;24.03
10202;BME280;5143;42.584;23.164;2022-07-23T09:33:45;93014.91;;;34.31;25.48
10202;BME280;5143;42.584;23.164;2022-07-23T09:36:12;93012.78;;;34.18;22.93
10202;BME280;5143;42.584;23.164;2022-07-23T09:38:48;93002.22;;;33.94;24.81
10202;BME280;5143;42.584;23.164;2022-07-23T09:41:15;92996.00;;;34.09;23.03
10202;BME280;5143;42.584;23.164;2022-07-23T09:43:43;93002.09;;;34.17;23.36
10202;BME280;5143;42.584;23.164;2022-07-23T09:46:17;93000.19;;;34.08;24.29
10202;BME280;5143;42.584;23.164;2022-07-23T09:48:44;92991.94;;;34.25;23.84
10202;BME280;5143;42.584;23.164;2022-07-23T09:51:12;92997.50;;;34.78;24.06
10202;BME280;5143;42.584;23.164;2022-07-23T09:53:39;92992.66;;;34.53;24.00
10202;BME280;5143;42.584;23.164;2022-07-23T09:56:07;93000.56;;;34.68;23.78
10202;BME280;5143;42.584;23.164;2022-07-23T09:58:36;92992.47;;;34.76;24.23
10202;BME280;5143;42.584;23.164;2022-07-23T10:01:12;92984.56;;;35.02;24.84
10202;BME280;5143;42.584;23.164;2022-07-23T10:03:40;92989.91;;;35.10;24.09
10202;BME280;5143;42.584;23.164;2022-07-23T10:06:09;92980.88;;;35.00;24.51
10202;BME280;5143;42.584;23.164;2022-07-23T10:08:39;92989.28;;;35.11;22.98
10202;BME280;5143;42.584;23.164;2022-07-23T10:11:07;92979.06;;;35.20;23.96
10202;BME280;5143;42.584;23.164;2022-07-23T10:13:35;92982.47;;;34.89;23.64
10202;BME280;5143;42.584;23.164;2022-07-23T10:16:21;92977.13;;;34.81;23.10
10202;BME280;5143;42.584;23.164;2022-07-23T10:18:48;92975.78;;;34.69;23.32
10202;BME280;5143;42.584;23.164;2022-07-23T10:21:19;92974.19;;;34.66;23.20
10202;BME280;5143;42.584;23.164;2022-07-23T10:24:00;92971.69;;;34.72;21.23
10202;BME280;5143;42.584;23.164;2022-07-23T10:26:35;92980.78;;;34.84;21.08
10202;BME280;5143;42.584;23.164;2022-07-23T10:29:13;92968.97;;;34.60;23.14
10202;BME280;5143;42.584;23.164;2022-07-23T10:31:54;92968.84;;;34.72;23.48
10202;BME280;5143;42.584;23.164;2022-07-23T10:34:30;92971.06;;;34.60;21.82
10202;BME280;5143;42.584;23.164;2022-07-23T10:37:07;92967.44;;;34.86;23.51
10202;BME280;5143;42.584;23.164;2022-07-23T10:39:38;92960.84;;;34.82;22.64
10202;BME280;5143;42.584;23.164;2022-07-23T10:42:10;92961.06;;;34.86;23.21
10202;BME280;5143;42.584;23.164;2022-07-23T10:44:41;92952.41;;;34.84;22.50
10202;BME280;5143;42.584;23.164;2022-07-23T10:47:11;92953.94;;;35.14;23.89
10202;BME280;5143;42.584;23.164;2022-07-23T10:50:17;92956.78;;;35.14;24.02
10202;BME280;5143;42.584;23.164;2022-07-23T10:53:16;92955.63;;;35.48;22.30
10202;BME280;5143;42.584;23.164;2022-07-23T10:55:49;92944.59;;;35.70;24.03
10202;BME280;5143;42.584;23.164;2022-07-23T11:01:33;92942.00;;;35.31;23.28
10202;BME280;5143;42.584;23.164;2022-07-23T11:04:02;92934.44;;;35.07;24.14
10202;BME280;5143;42.584;23.164;2022-07-23T11:07:08;92933.69;;;35.06;24.64
10202;BME280;5143;42.584;23.164;2022-07-23T11:09:42;92934.34;;;34.91;24.05
10202;BME280;5143;42.584;23.164;2022-07-23T11:12:31;92928.16;;;34.81;23.65
10202;BME280;5143;42.584;23.164;2022-07-23T11:14:59;92926.28;;;34.72;23.98
10202;BME280;5143;42.584;23.164;2022-07-23T11:17:26;92918.63;;;34.47;24.02
10202;BME280;5143;42.584;23.164;2022-07-23T11:20:14;92921.06;;;34.53;25.51
10202;BME280;5143;42.584;23.164;2022-07-23T11:22:47;92924.41;;;34.35;24.63
10202;BME280;5143;42.584;23.164;2022-07-23T11:25:30;92922.75;;;34.44;26.70
10202;BME280;5143;42.584;23.164;2022-07-23T11:28:09;92917.56;;;34.68;24.79
10202;BME280;5143;42.584;23.164;2022-07-23T11:30:41;92913.06;;;34.63;24.01
10202;BME280;5143;42.584;23.164;2022-07-23T11:33:19;92911.09;;;34.24;24.36
10202;BME280;5143;42.584;23.164;2022-07-23T11:35:51;92909.72;;;34.39;24.17
10202;BME280;5143;42.584;23.164;2022-07-23T11:38:27;92901.91;;;34.53;23.76
10202;BME280;5143;42.584;23.164;2022-07-23T11:40:56;92899.59;;;34.77;25.44
10202;BME280;5143;42.584;23.164;2022-07-23T11:43:24;92907.72;;;34.98;26.55
10202;BME280;5143;42.584;23.164;2022-07-23T11:45:52;92897.16;;;34.85;24.23
10202;BME280;5143;42.584;23.164;2022-07-23T11:48:22;92902.88;;;35.01;23.56
10202;BME280;5143;42.584;23.164;2022-07-23T11:50:51;92891.75;;;35.05;24.78
10202;BME280;5143;42.584;23.164;2022-07-23T11:53:25;92894.41;;;35.30;22.73
10202;BME280;5143;42.584;23.164;2022-07-23T11:55:52;92896.19;;;35.23;21.95
10202;BME280;5143;42.584;23.164;2022-07-23T11:58:20;92893.94;;;35.35;25.05
10202;BME280;5143;42.584;23.164;2022-07-23T12:00:47;92895.63;;;35.11;23.48
10202;BME280;5143;42.584;23.164;2022-07-23T12:03:16;92892.16;;;35.13;23.79
10202;BME280;5143;42.584;23.164;2022-07-23T12:05:43;92887.59;;;34.78;22.01
10202;BME280;5143;42.584;23.164;2022-07-23T12:08:11;92887.28;;;34.72;21.82
10202;BME280;5143;42.584;23.164;2022-07-23T12:10:39;92891.56;;;34.58;22.78
10202;BME280;5143;42.584;23.164;2022-07-23T12:13:09;92883.19;;;34.75;21.44
10202;BME280;5143;42.584;23.164;2022-07-23T12:15:38;92882.47;;;34.75;22.19
10202;BME280;5143;42.584;23.164;2022-07-23T12:18:08;92879.94;;;34.81;21.96
10202;BME280;5143;42.584;23.164;2022-07-23T12:20:37;92885.19;;;34.73;20.74
10202;BME280;5143;42.584;23.164;2022-07-23T12:23:06;92887.69;;;34.94;19.53
10202;BME280;5143;42.584;23.164;2022-07-23T12:25:36;92882.81;;;35.10;19.28
10202;BME280;5143;42.584;23.164;2022-07-23T12:28:05;92878.16;;;35.03;16.37
10202;BME280;5143;42.584;23.164;2022-07-23T12:30:35;92882.09;;;34.96;16.82
10202;BME280;5143;42.584;23.164;2022-07-23T12:33:04;92880.06;;;35.12;16.94
10202;BME280;5143;42.584;23.164;2022-07-23T12:35:35;92880.28;;;35.32;17.11
10202;BME280;5143;42.584;23.164;2022-07-23T12:38:04;92868.41;;;35.35;16.97
10202;BME280;5143;42.584;23.164;2022-07-23T12:40:33;92868.88;;;35.61;17.83
10202;BME280;5143;42.584;23.164;2022-07-23T12:43:04;92862.13;;;35.68;18.87
10202;BME280;5143;42.584;23.164;2022-07-23T12:45:45;92868.16;;;35.61;18.82
10202;BME280;5143;42.584;23.164;2022-07-23T12:48:18;92853.31;;;35.62;19.13
10202;BME280;5143;42.584;23.164;2022-07-23T12:50:52;92854.59;;;35.59;18.17
10202;BME280;5143;42.584;23.164;2022-07-23T12:53:21;92852.34;;;35.42;19.76
10202;BME280;5143;42.584;23.164;2022-07-23T12:55:50;92852.09;;;35.51;20.21
10202;BME280;5143;42.584;23.164;2022-07-23T12:58:20;92848.19;;;35.59;20.59
10202;BME280;5143;42.584;23.164;2022-07-23T13:00:55;92839.66;;;35.74;20.50
10202;BME280;5143;42.584;23.164;2022-07-23T13:03:27;92845.16;;;35.86;20.04
10202;BME280;5143;42.584;23.164;2022-07-23T13:05:54;92847.56;;;35.76;19.59
10202;BME280;5143;42.584;23.164;2022-07-23T13:08:22;92852.06;;;35.36;20.17
10202;BME280;5143;42.584;23.164;2022-07-23T13:10:49;92854.91;;;35.36;19.85
10202;BME280;5143;42.584;23.164;2022-07-23T13:13:18;92850.97;;;35.27;20.14
10202;BME280;5143;42.584;23.164;2022-07-23T13:15:46;92850.41;;;35.15;19.47
10202;BME280;5143;42.584;23.164;2022-07-23T13:18:13;92850.88;;;35.25;19.52
10202;BME280;5143;42.584;23.164;2022-07-23T13:20:40;92850.34;;;35.44;19.43
10202;BME280;5143;42.584;23.164;2022-07-23T13:23:07;92851.53;;;35.39;19.73
10202;BME280;5143;42.584;23.164;2022-07-23T13:25:34;92849.28;;;35.07;21.02
10202;BME280;5143;42.584;23.164;2022-07-23T13:28:01;92845.50;;;34.73;20.25
10202;BME280;5143;42.584;23.164;2022-07-23T13:30:30;92839.50;;;34.80;21.91
10202;BME280;5143;42.584;23.164;2022-07-23T13:32:57;92839.59;;;34.82;20.25
10202;BME280;5143;42.584;23.164;2022-07-23T13:35:24;92834.16;;;34.73;19.80
10202;BME280;5143;42.584;23.164;2022-07-23T13:37:51;92833.66;;;34.92;20.02
10202;BME280;5143;42.584;23.164;2022-07-23T13:40:18;92838.63;;;34.78;20.34
10202;BME280;5143;42.584;23.164;2022-07-23T13:42:45;92835.72;;;34.76;21.00
10202;BME280;5143;42.584;23.164;2022-07-23T13:45:11;92839.31;;;34.92;18.95
10202;BME280;5143;42.584;23.164;2022-07-23T13:47:40;92826.41;;;34.89;18.83
10202;BME280;5143;42.584;23.164;2022-07-23T13:50:07;92823.94;;;34.81;19.33
10202;BME280;5143;42.584;23.164;2022-07-23T13:52:34;92825.91;;;34.63;18.88
10202;BME280;5143;42.584;23.164;2022-07-23T13:55:01;92819.91;;;34.57;19.11
10202;BME280;5143;42.584;23.164;2022-07-23T13:57:29;92822.03;;;34.86;20.53
10202;BME280;5143;42.584;23.164;2022-07-23T13:59:56;92819.84;;;35.00;20.63
10202;BME280;5143;42.584;23.164;2022-07-23T14:02:23;92813.69;;;34.90;19.86
10202;BME280;5143;42.584;23.164;2022-07-23T14:04:52;92819.28;;;35.17;20.17
10202;BME280;5143;42.584;23.164;2022-07-23T14:07:19;92825.69;;;35.18;20.14
10202;BME280;5143;42.584;23.164;2022-07-23T14:09:46;92810.28;;;35.07;20.41
10202;BME280;5143;42.584;23.164;2022-07-23T14:12:13;92818.16;;;35.09;20.23
10202;BME280;5143;42.584;23.164;2022-07-23T14:14:40;92814.34;;;35.18;21.47
10202;BME280;5143;42.584;23.164;2022-07-23T14:17:08;92826.88;;;35.28;20.04
10202;BME280;5143;42.584;23.164;2022-07-23T14:19:35;92823.22;;;35.10;20.70
10202;BME280;5143;42.584;23.164;2022-07-23T14:22:04;92822.81;;;35.02;21.04
10202;BME280;5143;42.584;23.164;2022-07-23T14:24:30;92814.78;;;35.12;19.40
10202;BME280;5143;42.584;23.164;2022-07-23T14:26:59;92815.91;;;35.21;21.90
10202;BME280;5143;42.584;23.164;2022-07-23T14:29:26;92807.91;;;35.33;21.45
10202;BME280;5143;42.584;23.164;2022-07-23T14:31:53;92815.44;;;35.11;20.20
10202;BME280;5143;42.584;23.164;2022-07-23T14:34:20;92813.06;;;34.91;20.23
10202;BME280;5143;42.584;23.164;2022-07-23T14:36:46;92802.19;;;35.02;22.95
10202;BME280;5143;42.584;23.164;2022-07-23T14:39:15;92802.00;;;34.97;21.02
10202;BME280;5143;42.584;23.164;2022-07-23T14:41:41;92811.34;;;35.00;20.56
10202;BME280;5143;42.584;23.164;2022-07-23T14:44:08;92795.69;;;34.99;20.88
10202;BME280;5143;42.584;23.164;2022-07-23T14:46:35;92799.22;;;35.13;20.39
10202;BME280;5143;42.584;23.164;2022-07-23T14:49:02;92799.31;;;35.15;21.40
10202;BME280;5143;42.584;23.164;2022-07-23T14:51:30;92794.91;;;35.12;21.29
10202;BME280;5143;42.584;23.164;2022-07-23T14:53:56;92786.69;;;35.18;21.75
10202;BME280;5143;42.584;23.164;2022-07-23T14:56:25;92797.25;;;35.02;22.35
10202;BME280;5143;42.584;23.164;2022-07-23T14:58:52;92794.06;;;34.94;19.97
10202;BME280;5143;42.584;23.164;2022-07-23T15:01:21;92791.00;;;34.90;21.69
10202;BME280;5143;42.584;23.164;2022-07-23T15:03:48;92781.41;;;34.97;20.85
10202;BME280;5143;42.584;23.164;2022-07-23T15:06:15;92788.16;;;34.90;19.44
10202;BME280;5143;42.584;23.164;2022-07-23T15:08:42;92780.56;;;34.79;21.86
10202;BME280;5143;42.584;23.164;2022-07-23T15:11:09;92779.72;;;34.76;21.06
10202;BME280;5143;42.584;23.164;2022-07-23T15:13:37;92777.81;;;34.81;19.73
10202;BME280;5143;42.584;23.164;2022-07-23T15:16:05;92773.41;;;34.78;22.22
10202;BME280;5143;42.584;23.164;2022-07-23T15:18:32;92777.31;;;34.71;22.73
10202;BME280;5143;42.584;23.164;2022-07-23T15:20:59;92770.44;;;34.60;22.65
10202;BME280;5143;42.584;23.164;2022-07-23T15:23:26;92765.38;;;34.29;22.28
10202;BME280;5143;42.584;23.164;2022-07-23T15:25:53;92763.94;;;34.01;21.65
10202;BME280;5143;42.584;23.164;2022-07-23T15:28:20;92761.44;;;34.07;22.95
10202;BME280;5143;42.584;23.164;2022-07-23T15:30:49;92752.53;;;33.86;23.33
10202;BME280;5143;42.584;23.164;2022-07-23T15:33:16;92763.13;;;33.85;23.63
10202;BME280;5143;42.584;23.164;2022-07-23T15:35:43;92752.94;;;33.80;22.07
10202;BME280;5143;42.584;23.164;2022-07-23T15:38:10;92752.53;;;33.72;23.64
10202;BME280;5143;42.584;23.164;2022-07-23T15:40:37;92753.78;;;33.69;23.34
10202;BME280;5143;42.584;23.164;2022-07-23T15:43:03;92756.53;;;33.67;22.13
10202;BME280;5143;42.584;23.164;2022-07-23T15:45:31;92751.38;;;33.63;22.42
10202;BME280;5143;42.584;23.164;2022-07-23T15:47:59;92756.09;;;33.72;22.82
10202;BME280;5143;42.584;23.164;2022-07-23T15:50:26;92751.19;;;33.73;25.00
10202;BME280;5143;42.584;23.164;2022-07-23T15:52:52;92758.09;;;33.70;23.58
10202;BME280;5143;42.584;23.164;2022-07-23T15:55:19;92753.38;;;33.61;27.28
10202;BME280;5143;42.584;23.164;2022-07-23T15:57:46;92748.75;;;33.54;27.73
10202;BME280;5143;42.584;23.164;2022-07-23T16:00:13;92752.94;;;33.39;23.50
10202;BME280;5143;42.584;23.164;2022-07-23T16:02:40;92759.00;;;33.34;24.76
10202;BME280;5143;42.584;23.164;2022-07-23T16:05:09;92753.53;;;33.24;24.71
10202;BME280;5143;42.584;23.164;2022-07-23T16:07:53;92749.75;;;33.06;24.11
10202;BME280;5143;42.584;23.164;2022-07-23T16:10:20;92749.94;;;32.96;26.36
10202;BME280;5143;42.584;23.164;2022-07-23T16:12:46;92746.13;;;32.92;26.06
10202;BME280;5143;42.584;23.164;2022-07-23T16:15:13;92746.63;;;32.88;28.21
10202;BME280;5143;42.584;23.164;2022-07-23T16:17:40;92744.53;;;32.75;28.01
10202;BME280;5143;42.584;23.164;2022-07-23T16:20:10;92739.72;;;32.52;26.31
10202;BME280;5143;42.584;23.164;2022-07-23T16:22:38;92743.94;;;32.40;26.57
10202;BME280;5143;42.584;23.164;2022-07-23T16:25:07;92736.66;;;32.23;25.54
10202;BME280;5143;42.584;23.164;2022-07-23T16:27:35;92744.06;;;32.17;25.22
10202;BME280;5143;42.584;23.164;2022-07-23T16:30:03;92742.88;;;31.96;25.97
10202;BME280;5143;42.584;23.164;2022-07-23T16:32:30;92734.28;;;31.94;29.87
10202;BME280;5143;42.584;23.164;2022-07-23T16:34:56;92740.44;;;31.91;26.38
10202;BME280;5143;42.584;23.164;2022-07-23T16:37:25;92737.72;;;31.93;26.09
10202;BME280;5143;42.584;23.164;2022-07-23T16:39:51;92739.50;;;31.75;28.66
10202;BME280;5143;42.584;23.164;2022-07-23T16:42:18;92744.06;;;31.68;30.86
10202;BME280;5143;42.584;23.164;2022-07-23T16:44:45;92736.31;;;31.45;33.53
10202;BME280;5143;42.584;23.164;2022-07-23T16:47:12;92728.50;;;31.21;34.69
10202;BME280;5143;42.584;23.164;2022-07-23T16:49:39;92739.91;;;31.00;36.37
10202;BME280;5143;42.584;23.164;2022-07-23T16:52:05;92736.06;;;30.83;36.89
10202;BME280;5143;42.584;23.164;2022-07-23T16:54:34;92740.72;;;30.67;37.53
10202;BME280;5143;42.584;23.164;2022-07-23T16:57:00;92733.31;;;30.51;37.65
10202;BME280;5143;42.584;23.164;2022-07-23T16:59:27;92733.84;;;30.26;39.48
10202;BME280;5143;42.584;23.164;2022-07-23T17:01:54;92737.53;;;29.96;38.23
10202;BME280;5143;42.584;23.164;2022-07-23T17:04:20;92735.78;;;29.69;39.00
10202;BME280;5143;42.584;23.164;2022-07-23T17:06:47;92736.31;;;29.56;39.61
10202;BME280;5143;42.584;23.164;2022-07-23T17:09:14;92734.56;;;29.30;40.62
10202;BME280;5143;42.584;23.164;2022-07-23T17:11:42;92740.16;;;28.99;42.98
10202;BME280;5143;42.584;23.164;2022-07-23T17:14:10;92745.84;;;28.90;43.91
10202;BME280;5143;42.584;23.164;2022-07-23T17:16:36;92729.94;;;28.63;44.55
10202;BME280;5143;42.584;23.164;2022-07-23T17:19:04;92731.72;;;28.49;45.26
10202;BME280;5143;42.584;23.164;2022-07-23T17:21:30;92727.81;;;28.14;45.88
10202;BME280;5143;42.584;23.164;2022-07-23T17:23:57;92730.31;;;28.00;46.47
10202;BME280;5143;42.584;23.164;2022-07-23T17:26:24;92726.34;;;27.75;48.09
10202;BME280;5143;42.584;23.164;2022-07-23T17:28:52;92719.72;;;27.61;48.83
10202;BME280;5143;42.584;23.164;2022-07-23T17:31:19;92728.41;;;27.45;48.21
10202;BME280;5143;42.584;23.164;2022-07-23T17:33:46;92721.09;;;27.14;49.44
10202;BME280;5143;42.584;23.164;2022-07-23T17:36:13;92726.50;;;26.92;49.75
10202;BME280;5143;42.584;23.164;2022-07-23T17:38:40;92723.59;;;26.73;51.70
10202;BME280;5143;42.584;23.164;2022-07-23T17:41:07;92726.19;;;26.62;52.54
10202;BME280;5143;42.584;23.164;2022-07-23T17:43:33;92723.91;;;26.41;54.09
10202;BME280;5143;42.584;23.164;2022-07-23T17:46:02;92726.94;;;26.09;56.17
10202;BME280;5143;42.584;23.164;2022-07-23T17:48:29;92724.84;;;25.83;57.86
10202;BME280;5143;42.584;23.164;2022-07-23T17:50:55;92724.94;;;25.58;60.34
10202;BME280;5143;42.584;23.164;2022-07-23T17:53:22;92726.31;;;25.32;63.05
10202;BME280;5143;42.584;23.164;2022-07-23T17:55:51;92723.91;;;25.11;63.46
10202;BME280;5143;42.584;23.164;2022-07-23T17:58:17;92732.22;;;25.02;63.53
10202;BME280;5143;42.584;23.164;2022-07-23T18:00:44;92724.63;;;24.95;63.99
10202;BME280;5143;42.584;23.164;2022-07-23T18:03:12;92728.47;;;24.82;64.93
10202;BME280;5143;42.584;23.164;2022-07-23T18:05:39;92739.38;;;24.63;65.12
10202;BME280;5143;42.584;23.164;2022-07-23T18:08:06;92734.19;;;24.35;66.07
10202;BME280;5143;42.584;23.164;2022-07-23T18:10:34;92732.75;;;24.26;66.93
10202;BME280;5143;42.584;23.164;2022-07-23T18:13:02;92743.28;;;24.03;70.10
10202;BME280;5143;42.584;23.164;2022-07-23T18:15:30;92741.88;;;23.87;70.24
10202;BME280;5143;42.584;23.164;2022-07-23T18:17:57;92748.66;;;23.61;74.93
10202;BME280;5143;42.584;23.164;2022-07-23T18:20:25;92742.34;;;23.53;73.59
10202;BME280;5143;42.584;23.164;2022-07-23T18:22:52;92745.72;;;23.44;76.07
10202;BME280;5143;42.584;23.164;2022-07-23T18:25:20;92746.66;;;23.31;76.77
10202;BME280;5143;42.584;23.164;2022-07-23T18:27:47;92744.81;;;23.26;81.20
10202;BME280;5143;42.584;23.164;2022-07-23T18:30:14;92746.13;;;23.18;83.72
10202;BME280;5143;42.584;23.164;2022-07-23T18:32:40;92739.47;;;23.06;88.44
10202;BME280;5143;42.584;23.164;2022-07-23T18:35:08;92746.34;;;22.89;87.49
10202;BME280;5143;42.584;23.164;2022-07-23T18:37:36;92756.38;;;22.77;93.12
10202;BME280;5143;42.584;23.164;2022-07-23T18:40:04;92752.66;;;22.67;93.96
10202;BME280;5143;42.584;23.164;2022-07-23T18:42:32;92749.84;;;22.52;95.56
10202;BME280;5143;42.584;23.164;2022-07-23T18:45:00;92757.81;;;22.48;95.07
10202;BME280;5143;42.584;23.164;2022-07-23T18:47:27;92765.41;;;22.40;93.96
10202;BME280;5143;42.584;23.164;2022-07-23T18:49:54;92765.78;;;22.37;96.23
10202;BME280;5143;42.584;23.164;2022-07-23T18:52:21;92768.72;;;22.31;95.42
10202;BME280;5143;42.584;23.164;2022-07-23T18:54:49;92772.59;;;22.20;99.85